Barcelona Knutsen — EACW — position and weather

sailwx.info

Track history (hours):
 
Tides and Currents Weather Stations Pressure Air Temp Water Temp Dewpoint Dewpoint Depression Visibility Wind Speed Wind Dir Waves Ship Positions

Barcelona Knutsen

Last reported at 2016-Apr-13 04:33 UTC. Time now 2016-May-06 07:21 UTC.
Position N 34°03' E 134°55'.
Warning: this ship's position is 23 days out of date.

Length 290 m; draft 9.6 m.

Type: Tanker. MMSI: 224436000.

Date/timePositionNaut miles runAvg speedWind from/ knotsBaromVisibWave heightAir tempDewpointWater temp
2016-Apr-13 04:33N 34°03' E 134°55'1212.4
2016-Apr-13 03:33N 34°15' E 134°58'1313.2
2016-Apr-13 02:33N 34°26' E 135°07'1413.9
2016-Apr-13 01:33N 34°33' E 135°21'3 2.5
2016-Apr-13 00:30N 34°34' E 135°24'0 0.0
2016-Apr-12 21:32N 34°34' E 135°24'0 0.0
2016-Apr-12 10:32N 34°34' E 135°24'0 0.0
2016-Apr-12 00:32N 34°34' E 135°24'0 0.0
2016-Apr-11 23:32N 34°34' E 135°24'3 3.0
2016-Apr-11 22:33N 34°33' E 135°21'1211.8
2016-Apr-11 21:33N 34°26' E 135°09'1312.7
2016-Apr-11 20:33N 34°17' E 134°59'9 9.1
2016-Apr-11 19:34N 34°08' E 134°60'7 7.0
2016-Apr-11 18:33N 34°01' E 134°59'9 8.7
2016-Apr-11 17:31N 33°52' E 134°57'  
Track history (hours):
 
Tides and Currents Weather Stations Pressure Air Temp Water Temp Dewpoint Dewpoint Depression Visibility Wind Speed Wind Dir Waves Ship Positions

Barcelona Knutsen

Last reported at 2016-Apr-13 04:33 UTC. Time now 2016-May-06 07:21 UTC.
Position N 34°03' E 134°55'.
Warning: this ship's position is 23 days out of date.

Length 290 m; draft 9.6 m.

Type: Tanker. MMSI: 224436000.

Date/timePositionNaut miles runAvg speedWind from/ knotsBaromVisibWave heightAir tempDewpointWater temp
2016-Apr-13 04:33N 34°03' E 134°55'1212.4
2016-Apr-13 03:33N 34°15' E 134°58'1313.2
2016-Apr-13 02:33N 34°26' E 135°07'1413.9
2016-Apr-13 01:33N 34°33' E 135°21'3 2.5
2016-Apr-13 00:30N 34°34' E 135°24'0 0.0
2016-Apr-12 21:32N 34°34' E 135°24'0 0.0
2016-Apr-12 10:32N 34°34' E 135°24'0 0.0
2016-Apr-12 00:32N 34°34' E 135°24'0 0.0
2016-Apr-11 23:32N 34°34' E 135°24'3 3.0
2016-Apr-11 22:33N 34°33' E 135°21'1211.8
2016-Apr-11 21:33N 34°26' E 135°09'1312.7
2016-Apr-11 20:33N 34°17' E 134°59'9 9.1
2016-Apr-11 19:34N 34°08' E 134°60'7 7.0
2016-Apr-11 18:33N 34°01' E 134°59'9 8.7
2016-Apr-11 17:31N 33°52' E 134°57'  

Dump ship's entire track history